Time;durP1;ratioP1;P1;durP2;ratioP2;P2;SDS_P1;SDS_P2;PMS_P1;PMS_P2;Temp;Humidity;BMP_temperature;BMP_pressure;BME280_temperature;BME280_humidity;BME280_pressure;Samples;Min_cycle;Max_cycle;Signal;HPM_P1;HPM_P2
2023/06/05 00:02:03;;;;;;;7.05;4.18;;;16.40;77.90;;;;;;5074335;28;20032;-73
2023/06/05 00:04:28;;;;;;;6.22;4.20;;;16.40;77.50;;;;;;5074692;28;20040;-72
2023/06/05 00:06:56;;;;;;;7.13;4.40;;;16.40;77.50;;;;;;5071254;28;20033;-72
2023/06/05 00:09:22;;;;;;;7.47;4.05;;;16.30;77.60;;;;;;5074427;28;20021;-71
2023/06/05 00:11:47;;;;;;;6.35;3.75;;;16.30;77.70;;;;;;5069638;28;20025;-72
2023/06/05 00:14:13;;;;;;;6.78;4.10;;;16.30;77.80;;;;;;5074956;28;20039;-72
2023/06/05 00:16:39;;;;;;;8.18;4.00;;;16.20;78.00;;;;;;5073626;28;20337;-76
2023/06/05 00:19:04;;;;;;;7.57;4.32;;;16.20;78.10;;;;;;5074977;28;20521;-76
2023/06/05 00:21:31;;;;;;;6.55;4.40;;;16.20;78.40;;;;;;5073543;28;20032;-73
2023/06/05 00:23:57;;;;;;;8.43;4.47;;;16.10;78.50;;;;;;5073201;28;20032;-73
2023/06/05 00:26:22;;;;;;;8.15;4.93;;;16.10;78.60;;;;;;5067903;28;20029;-73
2023/06/05 00:28:48;;;;;;;6.90;4.13;;;16.10;78.70;;;;;;5071046;28;20098;-74
2023/06/05 00:31:14;;;;;;;8.52;4.35;;;16.10;78.90;;;;;;5071804;28;20371;-74
2023/06/05 00:33:40;;;;;;;6.97;4.50;;;16.00;79.00;;;;;;5069890;28;20031;-76
2023/06/05 00:36:06;;;;;;;7.63;4.28;;;16.00;79.10;;;;;;5073760;28;20502;-73
2023/06/05 00:38:32;;;;;;;7.43;4.38;;;15.90;79.10;;;;;;5071136;28;20025;-73
2023/06/05 00:40:58;;;;;;;7.50;4.10;;;15.90;79.30;;;;;;5070205;28;20088;-72
2023/06/05 00:43:24;;;;;;;6.72;4.22;;;15.90;79.30;;;;;;5072567;28;20625;-73
2023/06/05 00:45:56;;;;;;;6.72;3.70;;;15.90;79.50;;;;;;5076449;28;20670;-72
2023/06/05 00:48:22;;;;;;;5.78;3.63;;;15.80;79.70;;;;;;5077022;28;20028;-73
2023/06/05 00:50:50;;;;;;;6.75;4.57;;;15.70;79.80;;;;;;5066521;28;20387;-73
2023/06/05 00:53:15;;;;;;;6.03;4.05;;;15.70;79.90;;;;;;5067553;28;20502;-73
2023/06/05 00:55:42;;;;;;;6.90;3.85;;;15.70;80.00;;;;;;5067205;28;20064;-73
2023/06/05 00:58:09;;;;;;;6.78;4.25;;;15.70;80.10;;;;;;5069262;28;20481;-75
2023/06/05 01:00:36;;;;;;;5.95;4.10;;;15.70;80.20;;;;;;5072937;28;20060;-75
2023/06/05 01:03:02;;;;;;;8.15;4.47;;;15.60;80.30;;;;;;5073497;28;20095;-74
2023/06/05 01:05:28;;;;;;;6.78;4.13;;;15.60;80.50;;;;;;5068969;28;20028;-74
2023/06/05 01:07:54;;;;;;;10.05;4.10;;;15.50;80.40;;;;;;5067909;28;20538;-75
2023/06/05 01:10:20;;;;;;;10.85;4.40;;;15.50;80.50;;;;;;5069334;28;20032;-73
2023/06/05 01:13:05;;;;;;;6.20;4.32;;;15.50;81.20;;;;;;5073130;28;20438;-74
2023/06/05 01:15:33;;;;;;;5.63;3.40;;;15.40;80.80;;;;;;5066254;28;20032;-74
2023/06/05 01:18:00;;;;;;;6.55;4.38;;;15.40;80.90;;;;;;5071534;28;20040;-74
2023/06/05 01:20:37;;;;;;;6.65;4.25;;;15.30;81.00;;;;;;5068410;28;20506;-75
2023/06/05 01:23:07;;;;;;;10.13;4.22;;;15.30;81.20;;;;;;5068526;28;20036;-75
2023/06/05 01:25:34;;;;;;;8.68;4.72;;;15.30;81.30;;;;;;5062419;28;20090;-74
2023/06/05 01:28:18;;;;;;;5.10;3.88;;;15.20;81.40;;;;;;5069724;28;20048;-75
2023/06/05 01:31:00;;;;;;;6.85;4.22;;;15.20;81.50;;;;;;5067443;28;21153;-75
2023/06/05 01:33:29;;;;;;;8.75;4.72;;;15.10;81.70;;;;;;5065683;28;20067;-76
2023/06/05 01:35:56;;;;;;;6.43;3.85;;;15.10;81.80;;;;;;5063323;28;20044;-76
2023/06/05 01:38:22;;;;;;;7.75;4.30;;;15.10;81.90;;;;;;5057213;28;20340;-75
2023/06/05 01:40:49;;;;;;;6.68;4.07;;;15.00;82.00;;;;;;5066152;28;20479;-75
2023/06/05 01:43:16;;;;;;;6.18;3.75;;;15.00;82.20;;;;;;5066048;28;20121;-75
2023/06/05 01:45:43;;;;;;;7.55;4.43;;;15.00;82.40;;;;;;5065737;28;20024;-75
2023/06/05 01:48:11;;;;;;;8.05;4.45;;;15.00;82.60;;;;;;5068555;28;20025;-75
2023/06/05 01:50:37;;;;;;;6.72;4.40;;;14.90;82.60;;;;;;5064078;28;20028;-75
2023/06/05 01:53:04;;;;;;;10.60;5.28;;;14.90;83.00;;;;;;5067561;28;20086;-76
2023/06/05 01:55:31;;;;;;;6.93;4.07;;;14.80;83.20;;;;;;5069719;28;20048;-75
2023/06/05 01:57:56;;;;;;;7.72;4.22;;;14.80;83.40;;;;;;5070392;28;20020;-75
2023/06/05 02:00:22;;;;;;;9.35;4.80;;;14.70;83.40;;;;;;5067976;28;20442;-75
2023/06/05 02:02:50;;;;;;;7.47;4.30;;;14.70;83.40;;;;;;5065249;28;20945;-76
2023/06/05 02:05:17;;;;;;;8.52;4.07;;;14.70;83.40;;;;;;5069825;28;20104;-76
2023/06/05 02:07:58;;;;;;;7.25;4.30;;;14.70;83.60;;;;;;5070211;28;20052;-75
2023/06/05 02:10:24;;;;;;;7.72;4.68;;;14.70;83.70;;;;;;5066678;28;20104;-75
2023/06/05 02:12:50;;;;;;;8.05;4.57;;;14.60;83.70;;;;;;5066205;28;20028;-76
2023/06/05 02:15:16;;;;;;;5.43;3.85;;;14.50;83.90;;;;;;5065105;28;20433;-75
2023/06/05 02:17:44;;;;;;;8.05;4.25;;;14.50;84.10;;;;;;5069152;28;20032;-75
2023/06/05 02:20:15;;;;;;;8.80;4.60;;;14.50;84.40;;;;;;5079717;28;20032;-76
2023/06/05 02:22:41;;;;;;;9.77;4.32;;;14.40;84.60;;;;;;5064617;28;20029;-75
2023/06/05 02:25:07;;;;;;;8.02;4.25;;;14.40;84.70;;;;;;5066761;28;20027;-75
2023/06/05 02:27:33;;;;;;;7.90;4.55;;;14.40;84.90;;;;;;5066129;28;20074;-76
2023/06/05 02:29:59;;;;;;;6.20;4.47;;;14.30;84.80;;;;;;5065263;28;20430;-75
2023/06/05 02:32:25;;;;;;;5.95;4.07;;;14.30;85.00;;;;;;5066641;28;20020;-75
2023/06/05 02:34:52;;;;;;;6.85;4.05;;;14.30;85.20;;;;;;5062731;28;20078;-76
2023/06/05 02:37:18;;;;;;;6.10;4.10;;;14.30;84.90;;;;;;5067591;28;20033;-75
2023/06/05 02:39:44;;;;;;;6.10;3.85;;;14.30;84.90;;;;;;5068656;28;20025;-76
2023/06/05 02:42:12;;;;;;;6.85;4.15;;;14.30;84.80;;;;;;5063854;28;20041;-76
2023/06/05 02:44:38;;;;;;;8.32;4.18;;;14.30;84.80;;;;;;5082188;28;20056;-76
2023/06/05 02:47:03;;;;;;;8.23;4.45;;;14.30;84.80;;;;;;5065028;28;20513;-76
2023/06/05 02:49:29;;;;;;;8.73;4.35;;;14.20;84.80;;;;;;5065878;28;20097;-76
2023/06/05 02:51:55;;;;;;;8.35;4.20;;;14.20;85.00;;;;;;5065998;28;20029;-75
2023/06/05 02:54:21;;;;;;;9.10;4.40;;;14.20;85.10;;;;;;5066005;28;20028;-74
2023/06/05 02:56:47;;;;;;;6.97;4.53;;;14.20;85.10;;;;;;5068102;28;20017;-74
2023/06/05 02:59:13;;;;;;;6.63;3.88;;;14.10;85.30;;;;;;5067799;28;20398;-75
2023/06/05 03:01:47;;;;;;;6.70;4.38;;;14.10;85.40;;;;;;5064832;28;20048;-75
2023/06/05 03:04:13;;;;;;;6.85;3.80;;;14.00;85.50;;;;;;5065704;28;20029;-75
2023/06/05 03:06:42;;;;;;;8.98;4.53;;;14.00;85.50;;;;;;5063448;28;20039;-75
2023/06/05 03:09:08;;;;;;;7.25;4.13;;;14.00;85.50;;;;;;5066367;28;20029;-75
2023/06/05 03:11:33;;;;;;;6.85;4.50;;;14.00;85.60;;;;;;5064008;28;20475;-76
2023/06/05 03:13:59;;;;;;;6.90;4.28;;;13.90;86.10;;;;;;5062377;28;20031;-75
2023/06/05 03:16:34;;;;;;;8.43;4.60;;;13.90;86.70;;;;;;5067877;28;20441;-77
2023/06/05 03:19:00;;;;;;;8.98;4.15;;;13.80;87.10;;;;;;5066444;28;20397;-76
2023/06/05 03:21:26;;;;;;;8.38;4.40;;;13.80;87.10;;;;;;5069960;28;20035;-76
2023/06/05 03:23:52;;;;;;;7.28;4.30;;;13.80;87.00;;;;;;5084054;28;20025;-75
2023/06/05 03:26:17;;;;;;;11.18;4.38;;;13.80;87.00;;;;;;5069912;28;20581;-75
2023/06/05 03:28:43;;;;;;;8.48;4.70;;;13.80;87.50;;;;;;5070947;28;20024;-76
2023/06/05 03:31:10;;;;;;;6.18;4.35;;;13.80;88.20;;;;;;5065744;28;20048;-76
2023/06/05 03:33:35;;;;;;;8.48;5.57;;;13.70;88.50;;;;;;5066591;28;20112;-76
2023/06/05 03:36:01;;;;;;;7.20;4.10;;;13.70;88.70;;;;;;5071618;28;20495;-75
2023/06/05 03:38:27;;;;;;;7.80;4.65;;;13.70;88.30;;;;;;5067603;28;20549;-75
2023/06/05 03:40:53;;;;;;;9.85;5.32;;;13.70;87.90;;;;;;5066711;28;20027;-76
2023/06/05 03:43:18;;;;;;;8.32;4.22;;;13.70;87.50;;;;;;5068670;28;20036;-77
2023/06/05 03:45:44;;;;;;;8.10;3.95;;;13.70;87.50;;;;;;5069079;28;20039;-76
2023/06/05 03:48:10;;;;;;;9.40;4.70;;;13.60;87.50;;;;;;5069582;28;20017;-77
2023/06/05 03:50:38;;;;;;;7.05;4.30;;;13.60;87.50;;;;;;5068355;28;20082;-76
2023/06/05 03:53:04;;;;;;;7.60;4.95;;;13.60;87.50;;;;;;5069859;28;20027;-77
2023/06/05 03:55:45;;;;;;;7.82;4.70;;;13.60;87.60;;;;;;5067228;28;20542;-76
2023/06/05 03:58:15;;;;;;;7.07;4.80;;;13.60;87.60;;;;;;5065385;28;20025;-76
2023/06/05 04:00:45;;;;;;;6.40;4.30;;;13.60;87.70;;;;;;5065302;28;20503;-76
2023/06/05 04:03:12;;;;;;;7.80;4.30;;;13.60;87.80;;;;;;5063918;28;20106;-75
2023/06/05 04:05:39;;;;;;;7.72;4.28;;;13.50;87.80;;;;;;5068513;28;20076;-76
2023/06/05 04:08:05;;;;;;;7.30;4.43;;;13.50;88.10;;;;;;5067121;28;20040;-76
2023/06/05 04:10:31;;;;;;;8.00;4.45;;;13.50;88.30;;;;;;5068044;28;20032;-76
2023/06/05 04:12:57;;;;;;;8.00;4.53;;;13.50;88.60;;;;;;5069511;28;20032;-76
2023/06/05 04:15:26;;;;;;;6.70;4.15;;;13.50;88.80;;;;;;5070764;28;20059;-76
2023/06/05 04:17:52;;;;;;;11.32;4.75;;;13.50;88.80;;;;;;5070815;28;20060;-76
2023/06/05 04:20:18;;;;;;;8.80;4.68;;;13.50;88.90;;;;;;5070323;28;20060;-76
2023/06/05 04:22:45;;;;;;;11.88;5.07;;;13.60;88.90;;;;;;5062306;28;20029;-75
2023/06/05 04:25:12;;;;;;;11.15;4.60;;;13.50;88.50;;;;;;5068716;28;20043;-75
2023/06/05 04:27:42;;;;;;;7.88;4.15;;;13.50;88.60;;;;;;5072598;28;20024;-76
2023/06/05 04:30:10;;;;;;;10.23;4.65;;;13.50;88.60;;;;;;5066725;28;20063;-75
2023/06/05 04:32:37;;;;;;;7.43;4.93;;;13.60;88.50;;;;;;5068916;28;20020;-75
2023/06/05 04:35:09;;;;;;;6.28;4.25;;;13.70;88.30;;;;;;5070340;28;20051;-75
2023/06/05 04:37:36;;;;;;;10.13;4.20;;;13.80;87.90;;;;;;5069452;28;20040;-76
2023/06/05 04:40:05;;;;;;;9.88;4.85;;;13.90;87.70;;;;;;5063310;28;20646;-75
2023/06/05 04:42:34;;;;;;;7.13;4.05;;;14.00;87.40;;;;;;5068842;28;20025;-76
2023/06/05 04:45:03;;;;;;;7.68;4.32;;;14.10;87.10;;;;;;5073456;28;20016;-75
2023/06/05 04:47:30;;;;;;;7.88;3.92;;;14.10;86.70;;;;;;5067830;28;20453;-75
2023/06/05 04:49:59;;;;;;;6.50;4.25;;;14.20;86.30;;;;;;5069857;28;20020;-75
2023/06/05 04:52:26;;;;;;;10.60;4.80;;;14.30;86.00;;;;;;5070095;28;20029;-75
2023/06/05 04:54:52;;;;;;;7.63;4.50;;;14.40;85.80;;;;;;5069466;28;20047;-75
2023/06/05 04:57:18;;;;;;;9.98;4.35;;;14.40;85.70;;;;;;5059429;28;20075;-75
2023/06/05 04:59:44;;;;;;;8.52;4.55;;;14.50;85.40;;;;;;5058966;28;20479;-77
2023/06/05 05:02:11;;;;;;;9.23;4.47;;;14.60;85.00;;;;;;5068710;28;20035;-76
2023/06/05 05:04:37;;;;;;;5.60;3.70;;;14.70;84.80;;;;;;5084072;28;20024;-74
2023/06/05 05:07:03;;;;;;;8.20;4.50;;;14.80;84.50;;;;;;5069365;28;20047;-75
2023/06/05 05:09:30;;;;;;;19.70;4.85;;;14.90;84.30;;;;;;5082962;28;20047;-75
2023/06/05 05:11:56;;;;;;;8.43;4.50;;;15.00;84.10;;;;;;5063432;28;20026;-77
2023/06/05 05:14:26;;;;;;;9.55;4.03;;;15.10;83.70;;;;;;5068379;28;20025;-75
2023/06/05 05:16:51;;;;;;;8.27;4.78;;;15.30;83.40;;;;;;5066649;28;20070;-75
2023/06/05 05:19:17;;;;;;;10.80;4.25;;;15.40;83.20;;;;;;5058304;28;20017;-67
2023/06/05 05:21:42;;;;;;;8.88;4.25;;;15.50;83.20;;;;;;5071517;28;20028;-68
2023/06/05 05:24:08;;;;;;;9.02;4.43;;;15.60;82.70;;;;;;5069668;28;20021;-68
2023/06/05 05:26:33;;;;;;;10.05;4.70;;;15.70;82.60;;;;;;5067687;28;20025;-67
2023/06/05 05:28:59;;;;;;;8.52;4.28;;;15.80;82.30;;;;;;5072065;28;20605;-66
2023/06/05 05:31:25;;;;;;;15.55;4.53;;;15.90;81.80;;;;;;5070095;28;20055;-66
2023/06/05 05:33:50;;;;;;;8.98;5.18;;;15.90;81.80;;;;;;5079274;28;20114;-66
2023/06/05 05:36:16;;;;;;;9.18;5.45;;;16.00;82.90;;;;;;5092988;28;20024;-65
2023/06/05 05:38:42;;;;;;;10.73;5.20;;;16.10;82.40;;;;;;5088262;28;20446;-66
2023/06/05 05:41:07;;;;;;;15.85;5.32;;;16.20;82.50;;;;;;5073821;28;20056;-66
2023/06/05 05:43:33;;;;;;;9.52;5.40;;;16.30;82.40;;;;;;5071140;28;20036;-66
2023/06/05 05:45:58;;;;;;;10.57;5.63;;;16.50;82.20;;;;;;5074309;28;20506;-67
2023/06/05 05:48:24;;;;;;;9.93;5.78;;;16.60;82.10;;;;;;5070957;28;20028;-67
2023/06/05 05:50:50;;;;;;;9.13;5.80;;;16.70;82.00;;;;;;5071015;28;20086;-67
2023/06/05 05:53:15;;;;;;;10.65;5.78;;;16.70;81.90;;;;;;5071899;28;20060;-66
2023/06/05 05:55:41;;;;;;;9.82;5.25;;;16.80;81.60;;;;;;5069831;28;20147;-68
2023/06/05 05:58:06;;;;;;;9.70;5.70;;;16.90;81.30;;;;;;5064426;28;20406;-74
2023/06/05 06:00:34;;;;;;;11.57;5.45;;;16.80;80.90;;;;;;5065709;28;20036;-74
2023/06/05 06:03:00;;;;;;;9.98;5.20;;;16.90;80.30;;;;;;5068820;28;20024;-74
2023/06/05 06:05:25;;;;;;;9.20;4.78;;;16.80;80.40;;;;;;5069617;28;20398;-73
2023/06/05 06:07:51;;;;;;;9.30;5.32;;;16.90;80.50;;;;;;5065302;28;20037;-73
2023/06/05 06:10:17;;;;;;;12.50;5.82;;;16.90;80.30;;;;;;5065426;28;20084;-74
2023/06/05 06:12:44;;;;;;;8.75;5.55;;;17.00;79.80;;;;;;5066068;28;20044;-74
2023/06/05 06:15:11;;;;;;;8.27;5.63;;;17.10;80.00;;;;;;5086186;28;20031;-73
2023/06/05 06:17:37;;;;;;;9.18;5.65;;;17.20;80.00;;;;;;5066424;28;20544;-74
2023/06/05 06:20:04;;;;;;;10.00;5.60;;;17.30;79.50;;;;;;5065990;28;20032;-74
2023/06/05 06:22:29;;;;;;;7.22;4.32;;;17.30;79.20;;;;;;5061572;28;20375;-73
2023/06/05 06:24:56;;;;;;;13.18;5.30;;;17.40;78.40;;;;;;5069362;28;20021;-74
2023/06/05 06:27:22;;;;;;;7.40;4.80;;;17.30;77.70;;;;;;5068832;28;20024;-74
2023/06/05 06:29:49;;;;;;;6.75;4.68;;;17.40;77.80;;;;;;5066887;28;20360;-73
2023/06/05 06:32:18;;;;;;;9.48;5.40;;;17.40;77.80;;;;;;5069047;28;20023;-73
2023/06/05 06:34:44;;;;;;;11.10;5.60;;;17.50;77.90;;;;;;5068288;28;20028;-73
2023/06/05 06:37:17;;;;;;;13.32;5.82;;;17.40;77.90;;;;;;5067643;28;20119;-73
2023/06/05 06:39:43;;;;;;;12.45;5.53;;;17.50;78.20;;;;;;5068799;28;20032;-73
2023/06/05 06:42:10;;;;;;;12.15;5.53;;;17.60;78.50;;;;;;5067031;28;20036;-73
2023/06/05 06:44:39;;;;;;;8.50;5.82;;;17.70;78.50;;;;;;5057625;28;20130;-73
2023/06/05 06:47:05;;;;;;;8.60;4.28;;;17.70;78.10;;;;;;5060133;28;20127;-74
2023/06/05 06:49:31;;;;;;;11.30;4.97;;;17.80;77.60;;;;;;5060300;28;20044;-73
2023/06/05 06:51:57;;;;;;;9.95;5.55;;;17.90;77.60;;;;;;5064052;28;20021;-74
2023/06/05 06:54:25;;;;;;;9.10;4.97;;;17.90;77.20;;;;;;5063125;28;20024;-74
2023/06/05 06:56:50;;;;;;;10.15;5.35;;;17.90;77.50;;;;;;5064216;28;20029;-74
2023/06/05 06:59:16;;;;;;;8.65;5.20;;;17.90;77.30;;;;;;5062826;28;20452;-73
2023/06/05 07:01:47;;;;;;;13.25;5.35;;;17.90;77.40;;;;;;5064181;28;20036;-73
2023/06/05 07:04:20;;;;;;;8.30;5.03;;;18.00;76.70;;;;;;5066490;28;20368;-73
2023/06/05 07:06:47;;;;;;;9.33;5.47;;;18.00;76.60;;;;;;5067885;28;20021;-73
2023/06/05 07:09:13;;;;;;;10.43;4.70;;;17.90;76.50;;;;;;5068241;28;20273;-72
2023/06/05 07:11:39;;;;;;;8.07;4.63;;;18.00;76.60;;;;;;5063922;28;20025;-71
2023/06/05 07:14:04;;;;;;;9.02;4.53;;;18.00;76.10;;;;;;5068009;28;20024;-73
2023/06/05 07:16:31;;;;;;;9.55;4.72;;;17.90;76.30;;;;;;5067790;28;20160;-72
2023/06/05 07:18:57;;;;;;;9.75;4.85;;;18.00;76.30;;;;;;5064532;28;20090;-74
2023/06/05 07:21:22;;;;;;;11.77;4.70;;;18.00;75.80;;;;;;5066746;28;20454;-73
2023/06/05 07:23:51;;;;;;;8.10;4.75;;;18.10;75.60;;;;;;5064676;28;20021;-74
2023/06/05 07:26:17;;;;;;;9.23;4.53;;;18.10;75.60;;;;;;5063227;28;20044;-74
2023/06/05 07:28:43;;;;;;;5.95;3.83;;;18.10;75.80;;;;;;5069712;28;20020;-73
2023/06/05 07:31:10;;;;;;;6.90;4.03;;;18.20;76.00;;;;;;5071115;28;20031;-74
2023/06/05 07:33:35;;;;;;;8.45;3.88;;;18.30;76.10;;;;;;5071174;28;20020;-73
2023/06/05 07:36:01;;;;;;;13.32;4.70;;;18.40;75.90;;;;;;5061990;28;20078;-74
2023/06/05 07:38:29;;;;;;;9.65;4.28;;;18.50;75.70;;;;;;5073724;28;20024;-73
2023/06/05 07:40:58;;;;;;;20.27;4.38;;;18.50;75.60;;;;;;5067801;28;20089;-72
2023/06/05 07:43:24;;;;;;;7.07;4.20;;;18.60;75.40;;;;;;5071144;28;20031;-73
2023/06/05 07:45:50;;;;;;;7.95;4.22;;;18.70;75.40;;;;;;5066717;28;20476;-73
2023/06/05 07:48:15;;;;;;;8.60;3.83;;;18.60;75.60;;;;;;5067135;28;20024;-73
2023/06/05 07:50:41;;;;;;;5.95;3.38;;;18.60;76.40;;;;;;5068363;28;20086;-72
2023/06/05 07:53:07;;;;;;;5.88;4.10;;;18.70;76.20;;;;;;5065548;28;20048;-73
2023/06/05 07:55:32;;;;;;;6.45;3.72;;;18.70;75.90;;;;;;5070594;28;20024;-74
2023/06/05 07:57:59;;;;;;;10.77;3.83;;;18.60;75.60;;;;;;5066946;28;20024;-71
2023/06/05 08:00:26;;;;;;;10.55;4.25;;;18.60;75.80;;;;;;5067108;28;20052;-75
2023/06/05 08:02:53;;;;;;;13.38;4.40;;;18.60;76.20;;;;;;5081993;28;20016;-75
2023/06/05 08:05:19;;;;;;;9.60;4.38;;;18.70;75.90;;;;;;5061965;28;20067;-75
2023/06/05 08:07:45;;;;;;;6.63;4.22;;;18.80;75.90;;;;;;5079250;28;20391;-75
2023/06/05 08:10:12;;;;;;;12.05;4.03;;;18.80;75.90;;;;;;5073988;28;20493;-75
2023/06/05 08:12:38;;;;;;;8.30;4.32;;;18.90;76.60;;;;;;5074754;28;20094;-74
2023/06/05 08:15:04;;;;;;;6.68;4.70;;;19.00;77.00;;;;;;5074056;28;20028;-75
2023/06/05 08:17:30;;;;;;;6.00;3.95;;;19.00;77.50;;;;;;5060601;28;20025;-74
2023/06/05 08:19:56;;;;;;;5.85;3.78;;;19.00;77.80;;;;;;5079759;28;20036;-74
2023/06/05 08:22:22;;;;;;;5.45;3.88;;;19.00;78.00;;;;;;5078927;28;20035;-74
2023/06/05 08:24:49;;;;;;;12.45;4.50;;;19.10;78.00;;;;;;5072830;28;20375;-74
2023/06/05 08:27:16;;;;;;;8.25;3.97;;;19.10;77.70;;;;;;5062354;28;20021;-74
2023/06/05 08:29:41;;;;;;;5.70;3.75;;;19.10;77.60;;;;;;5065756;28;20049;-72
2023/06/05 08:32:07;;;;;;;6.63;3.63;;;19.10;77.40;;;;;;5069879;28;20094;-73
2023/06/05 08:34:33;;;;;;;8.18;4.00;;;19.20;77.40;;;;;;5067369;28;20364;-72
2023/06/05 08:36:58;;;;;;;6.68;3.97;;;19.30;77.40;;;;;;5088233;28;20494;-75
2023/06/05 08:39:29;;;;;;;7.88;4.55;;;19.40;77.40;;;;;;5078238;28;20020;-72
2023/06/05 08:41:59;;;;;;;6.43;3.83;;;19.40;77.70;;;;;;5067439;28;20024;-74
2023/06/05 08:44:26;;;;;;;9.65;4.00;;;19.60;77.60;;;;;;5078201;28;20474;-74
2023/06/05 08:46:56;;;;;;;8.60;3.70;;;19.60;77.20;;;;;;5079548;28;20017;-73
2023/06/05 08:49:25;;;;;;;11.50;4.38;;;19.70;77.10;;;;;;5064140;28;20554;-74
2023/06/05 08:51:52;;;;;;;7.35;3.92;;;19.80;77.30;;;;;;5071653;28;20032;-76
2023/06/05 08:54:19;;;;;;;8.73;4.50;;;19.80;77.80;;;;;;5063221;28;20050;-75
2023/06/05 08:56:48;;;;;;;9.48;4.32;;;19.90;78.00;;;;;;5070005;28;20040;-75
2023/06/05 08:59:14;;;;;;;13.10;5.05;;;19.90;78.50;;;;;;5067745;28;20107;-76
2023/06/05 09:01:40;;;;;;;11.00;4.35;;;20.00;78.80;;;;;;5070362;28;20054;-76
2023/06/05 09:04:06;;;;;;;9.52;5.13;;;20.10;78.80;;;;;;5068932;28;20086;-76
2023/06/05 09:06:32;;;;;;;8.15;4.50;;;20.10;78.90;;;;;;5070300;28;20025;-75
2023/06/05 09:09:01;;;;;;;6.97;4.18;;;20.30;78.90;;;;;;5068792;28;20103;-75
2023/06/05 09:11:31;;;;;;;8.80;5.10;;;20.30;78.50;;;;;;5071546;28;20024;-75
2023/06/05 09:13:58;;;;;;;8.27;4.30;;;20.40;78.20;;;;;;5070156;28;20028;-75
2023/06/05 09:16:38;;;;;;;6.18;4.85;;;20.40;78.20;;;;;;5068876;28;20596;-76
2023/06/05 09:19:05;;;;;;;9.82;5.30;;;20.50;78.30;;;;;;5064868;28;20120;-76
2023/06/05 09:21:31;;;;;;;7.38;5.18;;;20.60;78.50;;;;;;5063706;28;20040;-75
2023/06/05 09:24:19;;;;;;;9.57;5.15;;;20.60;78.50;;;;;;5066891;28;20039;-75
2023/06/05 09:27:09;;;;;;;9.43;5.18;;;20.70;78.80;;;;;;5067968;28;20111;-76
2023/06/05 09:29:40;;;;;;;5.90;4.50;;;20.80;78.70;;;;;;5067613;28;20033;-76
2023/06/05 09:32:15;;;;;;;8.25;5.20;;;20.80;79.00;;;;;;5069508;28;20016;-76
2023/06/05 09:34:41;;;;;;;7.38;4.93;;;20.90;78.90;;;;;;5070194;28;20033;-76
2023/06/05 09:37:11;;;;;;;8.02;4.80;;;21.00;79.00;;;;;;5072463;28;20056;-76
2023/06/05 09:39:40;;;;;;;7.13;5.40;;;21.10;79.10;;;;;;5070850;28;20020;-76
2023/06/05 09:42:06;;;;;;;12.98;4.93;;;21.20;78.70;;;;;;5069750;28;20021;-77
2023/06/05 09:44:33;;;;;;;10.52;4.60;;;21.30;78.70;;;;;;5069438;28;20024;-76
2023/06/05 09:47:05;;;;;;;9.57;5.25;;;21.40;78.40;;;;;;5065678;28;20071;-78
2023/06/05 09:49:32;;;;;;;8.32;5.38;;;21.40;78.40;;;;;;5062678;28;20029;-76
2023/06/05 09:52:00;;;;;;;6.82;4.80;;;21.50;78.40;;;;;;5063558;28;20051;-77
2023/06/05 09:54:28;;;;;;;7.38;4.65;;;21.50;78.00;;;;;;5065284;28;20563;-76
2023/06/05 09:57:01;;;;;;;11.32;5.07;;;21.60;78.10;;;;;;5073326;28;20047;-77
2023/06/05 09:59:34;;;;;;;8.68;4.82;;;21.60;77.80;;;;;;5069132;28;20064;-77
2023/06/05 10:02:05;;;;;;;10.30;5.00;;;21.60;78.00;;;;;;5066832;28;20037;-78
2023/06/05 10:04:38;;;;;;;9.73;5.00;;;21.60;77.70;;;;;;5086198;28;20128;-77
2023/06/05 10:07:05;;;;;;;7.55;4.68;;;21.70;77.50;;;;;;5069482;28;20169;-76
2023/06/05 10:09:34;;;;;;;7.97;4.82;;;21.80;76.50;;;;;;5078744;28;20024;-75
2023/06/05 10:12:00;;;;;;;11.70;5.20;;;21.80;76.40;;;;;;5080581;28;20054;-77
2023/06/05 10:14:26;;;;;;;7.28;4.63;;;21.90;76.00;;;;;;5059844;28;20047;-78
2023/06/05 10:16:52;;;;;;;5.75;3.70;;;22.00;75.00;;;;;;5069962;28;20111;-77
2023/06/05 10:19:20;;;;;;;5.80;4.55;;;22.10;74.40;;;;;;5069270;28;20418;-76
2023/06/05 10:21:49;;;;;;;6.22;4.25;;;22.20;74.30;;;;;;5073118;28;20037;-77
2023/06/05 10:24:40;;;;;;;7.60;4.65;;;22.30;73.30;;;;;;5063076;28;20135;-76
2023/06/05 10:27:09;;;;;;;7.15;4.60;;;22.40;73.10;;;;;;5052960;28;20039;-76
2023/06/05 10:30:02;;;;;;;8.57;4.95;;;22.40;72.80;;;;;;5068239;28;20047;-77
2023/06/05 10:32:28;;;;;;;8.98;4.75;;;22.40;73.20;;;;;;5061311;28;20025;-76
2023/06/05 10:35:18;;;;;;;8.45;4.95;;;22.40;73.30;;;;;;5067956;28;20693;-77
2023/06/05 10:38:05;;;;;;;6.40;4.22;;;22.50;73.00;;;;;;5064765;28;20051;-76
2023/06/05 10:40:31;;;;;;;6.88;4.72;;;22.50;72.90;;;;;;5067208;28;20056;-77
2023/06/05 10:43:24;;;;;;;6.32;4.28;;;22.50;72.80;;;;;;5072746;28;20442;-77
2023/06/05 10:45:51;;;;;;;7.53;4.20;;;22.60;72.30;;;;;;5069757;28;20012;-77
2023/06/05 10:48:17;;;;;;;6.35;4.68;;;22.70;71.20;;;;;;5076566;28;20051;-75
2023/06/05 10:50:43;;;;;;;6.35;4.05;;;22.80;71.00;;;;;;5067907;28;20431;-74
2023/06/05 10:53:42;;;;;;;8.40;5.03;;;22.70;70.80;;;;;;5066495;28;20017;-74
2023/06/05 10:56:08;;;;;;;7.68;4.50;;;22.80;70.40;;;;;;5070663;28;20024;-74
2023/06/05 10:58:34;;;;;;;9.60;4.38;;;22.90;69.00;;;;;;5067764;28;20071;-75
2023/06/05 11:01:31;;;;;;;5.25;4.10;;;22.90;69.80;;;;;;5069099;28;20048;-74
2023/06/05 11:03:59;;;;;;;8.40;4.47;;;22.90;70.10;;;;;;5030489;28;20135;-75
2023/06/05 11:06:25;;;;;;;8.00;4.72;;;22.90;70.10;;;;;;5068437;28;20090;-74
2023/06/05 11:09:14;;;;;;;6.40;4.60;;;23.00;69.10;;;;;;5069078;28;20020;-75
2023/06/05 11:11:59;;;;;;;5.60;4.30;;;23.00;68.50;;;;;;5069847;28;20025;-76
2023/06/05 11:14:44;;;;;;;6.95;4.47;;;23.00;68.40;;;;;;5076461;28;20028;-75
2023/06/05 11:17:30;;;;;;;6.25;4.43;;;23.00;68.50;;;;;;5066975;28;20035;-74
2023/06/05 11:19:57;;;;;;;5.00;3.97;;;23.10;68.40;;;;;;5068125;28;20029;-74
2023/06/05 11:22:23;;;;;;;9.43;3.72;;;23.10;67.80;;;;;;5069129;28;20031;-76
2023/06/05 11:25:18;;;;;;;8.07;4.03;;;23.20;67.40;;;;;;5072570;28;20028;-75
2023/06/05 11:27:48;;;;;;;5.57;4.07;;;23.20;66.80;;;;;;5061517;28;20032;-75
2023/06/05 11:30:17;;;;;;;7.53;4.50;;;23.20;66.40;;;;;;5070160;28;20021;-74
2023/06/05 11:32:44;;;;;;;6.15;4.40;;;23.20;66.70;;;;;;5072425;28;20028;-75
2023/06/05 11:35:10;;;;;;;8.90;4.20;;;23.30;66.40;;;;;;5070364;28;20506;-74
2023/06/05 11:37:37;;;;;;;6.20;4.13;;;23.30;66.10;;;;;;5070408;28;20024;-74
2023/06/05 11:40:14;;;;;;;6.55;4.25;;;23.40;65.40;;;;;;5072734;28;20081;-75
2023/06/05 11:42:40;;;;;;;7.13;4.30;;;23.40;65.60;;;;;;5074010;28;20479;-75
2023/06/05 11:45:12;;;;;;;5.53;4.18;;;23.40;65.10;;;;;;5066101;28;20076;-75
2023/06/05 11:47:38;;;;;;;6.28;4.50;;;23.50;65.30;;;;;;5080427;28;20107;-76
2023/06/05 11:50:08;;;;;;;10.02;4.57;;;23.50;64.70;;;;;;5079918;28;20291;-75
2023/06/05 11:52:35;;;;;;;5.88;3.95;;;23.50;64.50;;;;;;5074506;28;20025;-75
2023/06/05 11:55:15;;;;;;;4.93;3.78;;;23.40;65.10;;;;;;5071201;28;20028;-74
2023/06/05 11:57:46;;;;;;;6.55;4.15;;;23.40;64.60;;;;;;5073437;28;20028;-74
2023/06/05 12:00:13;;;;;;;6.78;4.18;;;23.40;65.00;;;;;;5073559;28;20456;-75
2023/06/05 12:02:41;;;;;;;7.63;4.38;;;23.40;64.90;;;;;;5087181;28;20059;-74
2023/06/05 12:05:07;;;;;;;5.68;4.22;;;23.40;64.60;;;;;;5072386;28;20028;-74
2023/06/05 12:07:36;;;;;;;6.32;3.97;;;23.40;64.30;;;;;;5070160;28;20637;-74
2023/06/05 12:10:03;;;;;;;6.03;4.53;;;23.40;62.90;;;;;;5076088;28;20017;-74
2023/06/05 12:12:29;;;;;;;6.38;3.90;;;23.50;62.70;;;;;;5070607;28;20029;-74
2023/06/05 12:14:56;;;;;;;5.30;3.72;;;23.60;63.00;;;;;;5070468;28;20107;-74
2023/06/05 12:17:25;;;;;;;5.30;3.85;;;23.60;62.70;;;;;;5070509;28;20166;-74
2023/06/05 12:19:54;;;;;;;5.65;4.03;;;23.60;62.60;;;;;;5072111;28;20498;-74
2023/06/05 12:22:20;;;;;;;6.50;4.10;;;23.80;62.80;;;;;;5070909;28;20036;-75
2023/06/05 12:24:46;;;;;;;6.78;4.13;;;23.80;62.70;;;;;;5070936;28;20028;-74
2023/06/05 12:27:11;;;;;;;6.95;4.50;;;23.80;62.70;;;;;;5071403;28;20023;-74
2023/06/05 12:29:38;;;;;;;4.97;3.88;;;23.90;62.20;;;;;;5071120;28;20501;-74
2023/06/05 12:32:24;;;;;;;6.35;3.95;;;24.00;61.90;;;;;;5070390;28;20074;-74
2023/06/05 12:34:52;;;;;;;5.30;3.92;;;24.00;60.90;;;;;;5074903;28;20013;-74
2023/06/05 12:37:31;;;;;;;5.60;4.20;;;24.00;60.90;;;;;;5068037;28;20112;-75
2023/06/05 12:40:01;;;;;;;9.05;4.57;;;24.10;60.80;;;;;;5070317;28;20103;-75
2023/06/05 12:42:28;;;;;;;9.48;3.90;;;24.10;60.80;;;;;;5071353;28;20040;-75
2023/06/05 12:44:55;;;;;;;8.48;4.60;;;24.20;61.00;;;;;;5078847;28;20024;-75
2023/06/05 12:47:22;;;;;;;7.47;4.15;;;24.20;61.00;;;;;;5067191;28;20024;-75
2023/06/05 12:49:47;;;;;;;6.03;4.78;;;24.30;60.90;;;;;;5072163;28;20095;-74
2023/06/05 12:52:13;;;;;;;5.22;3.67;;;24.40;60.80;;;;;;5074008;28;20440;-74